createdAt,value
2023-01-27T00:01:05.955Z,0.46
2023-01-27T00:03:33.957Z,0.45
2023-01-27T00:06:02.108Z,0.42
2023-01-27T00:08:30.063Z,0.42
2023-01-27T00:11:18.874Z,0.43
2023-01-27T00:13:46.732Z,0.45
2023-01-27T00:16:14.759Z,0.45
2023-01-27T00:18:43.038Z,0.46
2023-01-27T00:21:29.645Z,0.45
2023-01-27T00:24:16.002Z,0.43
2023-01-27T00:26:44.258Z,0.12
2023-01-27T00:29:13.517Z,0.04
2023-01-27T00:31:59.921Z,0.14
2023-01-27T00:34:27.906Z,0.21
2023-01-27T00:36:55.857Z,0.26
2023-01-27T00:39:23.832Z,0.27
2023-01-27T00:41:51.901Z,0.29
2023-01-27T00:44:19.713Z,0.28
2023-01-27T00:46:47.590Z,0.29
2023-01-27T00:49:15.897Z,0.35
2023-01-27T00:51:44.090Z,0.38
2023-01-27T00:54:12.057Z,0.43
2023-01-27T00:56:40.533Z,0.49
2023-01-27T00:59:08.501Z,0.54
2023-01-27T01:01:36.452Z,0.56
2023-01-27T01:04:04.528Z,0.57
2023-01-27T01:06:32.828Z,0.60
2023-01-27T01:09:00.791Z,0.64
2023-01-27T01:11:28.969Z,0.68
2023-01-27T01:13:57.461Z,0.72
2023-01-27T01:16:26.204Z,0.75
2023-01-27T01:18:54.204Z,0.78
2023-01-27T01:21:22.696Z,0.80
2023-01-27T01:23:50.930Z,0.82
2023-01-27T01:26:19.145Z,0.84
2023-01-27T01:28:47.313Z,0.85
2023-01-27T01:31:19.329Z,0.88
2023-01-27T01:33:47.862Z,0.90
2023-01-27T01:36:17.581Z,0.92
2023-01-27T01:38:46.543Z,0.95
2023-01-27T01:41:16.784Z,0.97
2023-01-27T01:43:44.757Z,0.99
2023-01-27T01:46:13.889Z,0.99
2023-01-27T01:48:47.185Z,1.00
2023-01-27T01:51:20.537Z,1.02
2023-01-27T01:53:59.077Z,1.04
2023-01-27T01:56:56.622Z,1.06
2023-01-27T01:59:24.791Z,1.08
2023-01-27T02:01:57.821Z,1.10
2023-01-27T02:04:28.819Z,1.12
2023-01-27T02:07:05.756Z,1.14
2023-01-27T02:09:33.871Z,1.17
2023-01-27T02:12:02.256Z,1.18
2023-01-27T02:14:30.223Z,1.20
2023-01-27T02:16:58.558Z,1.21
2023-01-27T02:19:33.229Z,1.22
2023-01-27T02:22:02.535Z,1.23
2023-01-27T02:24:38.201Z,1.24
2023-01-27T02:27:06.149Z,1.25
2023-01-27T02:29:34.122Z,1.23
2023-01-27T02:32:02.099Z,1.22
2023-01-27T02:34:32.208Z,1.24
2023-01-27T02:37:03.043Z,1.25
2023-01-27T02:39:36.236Z,1.26
2023-01-27T02:42:06.051Z,1.27
2023-01-27T02:44:34.231Z,1.29
2023-01-27T02:47:03.932Z,1.30
2023-01-27T02:49:31.902Z,1.33
2023-01-27T02:51:59.879Z,1.35
2023-01-27T02:54:30.300Z,1.35
2023-01-27T02:56:58.193Z,1.35
2023-01-27T02:59:26.847Z,1.32
2023-01-27T03:01:54.704Z,1.27
2023-01-27T03:04:22.698Z,1.27
2023-01-27T03:06:50.655Z,1.29
2023-01-27T03:09:18.928Z,1.32
2023-01-27T03:12:05.740Z,1.34
2023-01-27T03:14:52.450Z,1.36
2023-01-27T03:17:38.957Z,1.38
2023-01-27T03:20:07.231Z,1.40
2023-01-27T03:22:35.203Z,1.42
2023-01-27T03:25:03.276Z,1.44
2023-01-27T03:27:31.620Z,1.44
2023-01-27T03:30:18.260Z,1.41
2023-01-27T03:32:54.213Z,1.39
2023-01-27T03:36:09.701Z,1.38
2023-01-27T03:38:56.815Z,1.36
2023-01-27T03:41:43.428Z,1.35
2023-01-27T03:44:29.896Z,1.35
2023-01-27T03:46:57.900Z,1.35
2023-01-27T03:49:25.777Z,1.35
2023-01-27T03:51:53.637Z,1.36
2023-01-27T03:54:21.597Z,1.39
2023-01-27T03:56:49.572Z,1.41
2023-01-27T03:59:18.498Z,1.43
2023-01-27T04:01:46.476Z,1.45
2023-01-27T04:04:32.932Z,1.47
2023-01-27T04:07:03.132Z,1.48
2023-01-27T04:09:35.220Z,1.48
2023-01-27T04:12:05.113Z,1.49
2023-01-27T04:14:34.535Z,1.52
2023-01-27T04:17:04.128Z,1.53
2023-01-27T04:19:32.118Z,1.55
2023-01-27T04:22:01.021Z,1.56
2023-01-27T04:24:29.022Z,1.57
2023-01-27T04:26:58.930Z,1.57
2023-01-27T04:29:28.703Z,1.54
2023-01-27T04:31:58.000Z,1.56
2023-01-27T04:34:27.002Z,1.57
2023-01-27T04:36:55.703Z,1.56
2023-01-27T04:39:24.380Z,1.55
2023-01-27T04:41:52.644Z,1.54
2023-01-27T04:44:20.511Z,1.51
2023-01-27T04:46:48.991Z,1.50
2023-01-27T04:49:17.278Z,1.47
2023-01-27T04:51:46.408Z,1.48
2023-01-27T04:54:16.285Z,1.48
2023-01-27T04:56:57.983Z,1.48
2023-01-27T04:59:26.155Z,1.49
2023-01-27T05:01:54.388Z,1.49
2023-01-27T05:04:22.602Z,1.50
2023-01-27T05:06:50.584Z,1.51
2023-01-27T05:09:18.464Z,1.52
2023-01-27T05:11:46.363Z,1.53
2023-01-27T05:14:14.817Z,1.56
2023-01-27T05:16:42.757Z,1.59
2023-01-27T05:19:11.034Z,1.62
2023-01-27T05:21:39.103Z,1.65
2023-01-27T05:24:07.128Z,1.68
2023-01-27T05:26:35.099Z,1.74
2023-01-27T05:29:03.047Z,1.80
2023-01-27T05:31:34.346Z,1.87
2023-01-27T05:34:02.634Z,1.92
2023-01-27T05:36:31.007Z,1.95
2023-01-27T05:38:59.349Z,1.99
2023-01-27T05:41:31.192Z,2.03
2023-01-27T05:43:59.478Z,2.06
2023-01-27T05:46:29.493Z,2.07
2023-01-27T05:49:01.623Z,2.11
2023-01-27T05:51:30.883Z,2.16
2023-01-27T05:53:58.782Z,2.22
2023-01-27T05:56:26.743Z,2.27
2023-01-27T05:58:55.450Z,2.33
2023-01-27T06:01:24.430Z,2.38
2023-01-27T06:03:52.702Z,2.41
2023-01-27T06:06:23.044Z,2.42
2023-01-27T06:08:51.190Z,2.39
2023-01-27T06:11:22.942Z,2.37
2023-01-27T06:13:51.724Z,2.39
2023-01-27T06:16:20.462Z,2.42
2023-01-27T06:18:48.845Z,2.40
2023-01-27T06:21:17.299Z,2.39
2023-01-27T06:23:45.370Z,2.38
2023-01-27T06:26:15.924Z,2.35
2023-01-27T06:28:44.525Z,2.31
2023-01-27T06:31:14.018Z,2.26
2023-01-27T06:33:42.177Z,2.21
2023-01-27T06:36:11.766Z,2.17
2023-01-27T06:38:40.045Z,2.17
2023-01-27T06:41:08.023Z,2.14
2023-01-27T06:43:35.885Z,2.12
2023-01-27T06:46:05.910Z,2.10
2023-01-27T06:48:34.585Z,2.09
2023-01-27T06:51:02.664Z,2.08
2023-01-27T06:53:31.787Z,2.06
2023-01-27T06:56:00.987Z,2.06
2023-01-27T06:58:29.551Z,2.05
2023-01-27T07:00:57.503Z,2.03
2023-01-27T07:03:26.599Z,2.04
2023-01-27T07:05:54.529Z,2.03
2023-01-27T07:08:22.773Z,2.02
2023-01-27T07:10:51.020Z,2.01
2023-01-27T07:13:19.204Z,1.99
2023-01-27T07:15:47.786Z,1.99
2023-01-27T07:18:15.742Z,2.00
2023-01-27T07:20:43.608Z,2.01
2023-01-27T07:23:12.124Z,2.01
2023-01-27T07:25:40.277Z,2.01
2023-01-27T07:28:08.260Z,2.02
2023-01-27T07:30:37.655Z,2.01
2023-01-27T07:33:12.724Z,2.00
2023-01-27T07:35:42.077Z,2.00
2023-01-27T07:38:10.046Z,2.00
2023-01-27T07:40:38.019Z,2.02
2023-01-27T07:43:05.992Z,2.03
2023-01-27T07:45:35.667Z,2.03
2023-01-27T07:48:05.312Z,2.05
2023-01-27T07:50:34.100Z,2.04
2023-01-27T07:53:03.085Z,2.05
2023-01-27T07:55:32.283Z,2.06
2023-01-27T07:58:00.141Z,2.07
2023-01-27T08:00:29.152Z,2.07
2023-01-27T08:02:58.129Z,2.07
2023-01-27T08:05:26.726Z,2.08
2023-01-27T08:07:57.147Z,2.10
2023-01-27T08:10:26.909Z,2.14
2023-01-27T08:12:55.097Z,2.18
2023-01-27T08:15:23.217Z,2.21
2023-01-27T08:18:00.121Z,2.24
2023-01-27T08:20:28.378Z,2.28
2023-01-27T08:22:56.743Z,2.33
2023-01-27T08:25:24.822Z,2.40
2023-01-27T08:27:53.720Z,2.45
2023-01-27T08:30:22.027Z,2.49
2023-01-27T08:32:50.471Z,2.53
2023-01-27T08:35:18.587Z,2.58
2023-01-27T08:37:48.877Z,2.63
2023-01-27T08:40:17.885Z,2.69
2023-01-27T08:42:45.968Z,2.72
2023-01-27T08:45:14.117Z,2.74
2023-01-27T08:47:42.068Z,2.76
2023-01-27T08:50:10.614Z,2.75
2023-01-27T08:52:39.031Z,2.79
2023-01-27T08:55:07.313Z,2.82
2023-01-27T08:57:36.973Z,2.84
2023-01-27T09:00:07.093Z,2.85
2023-01-27T09:02:35.617Z,2.86
2023-01-27T09:05:03.990Z,2.84
2023-01-27T09:07:33.294Z,2.84
2023-01-27T09:10:19.840Z,2.83
2023-01-27T09:12:48.079Z,2.80
2023-01-27T09:15:16.435Z,2.78
2023-01-27T09:17:44.941Z,2.75
2023-01-27T09:20:13.522Z,2.73
2023-01-27T09:22:42.151Z,2.72
2023-01-27T09:25:14.074Z,2.72
2023-01-27T09:27:42.452Z,2.73
2023-01-27T09:30:12.396Z,2.72
2023-01-27T09:32:41.158Z,2.75
2023-01-27T09:35:09.376Z,2.79
2023-01-27T09:37:40.781Z,2.80
2023-01-27T09:40:14.723Z,2.82
2023-01-27T09:42:54.760Z,2.84
2023-01-27T09:45:55.025Z,2.85
2023-01-27T09:48:23.038Z,2.89
2023-01-27T09:51:11.179Z,2.90
2023-01-27T09:53:51.227Z,2.92
2023-01-27T09:56:21.956Z,2.94
2023-01-27T09:59:08.468Z,2.96
2023-01-27T10:01:36.313Z,2.98
2023-01-27T10:04:13.465Z,3.00
2023-01-27T10:06:59.918Z,2.99
2023-01-27T10:09:40.899Z,3.00
2023-01-27T10:12:23.300Z,3.00
2023-01-27T10:14:57.411Z,3.03
2023-01-27T10:17:44.260Z,3.05
2023-01-27T10:20:44.683Z,3.07
2023-01-27T10:23:30.953Z,3.10
2023-01-27T10:26:06.369Z,3.12
2023-01-27T10:28:34.869Z,3.13
2023-01-27T10:31:08.819Z,3.14
2023-01-27T10:33:45.970Z,3.15
2023-01-27T10:36:22.559Z,3.16
2023-01-27T10:38:56.555Z,3.17
2023-01-27T10:41:33.745Z,3.19
2023-01-27T10:44:40.529Z,3.21
2023-01-27T10:47:28.627Z,3.23
2023-01-27T10:50:00.175Z,3.22
2023-01-27T10:52:34.275Z,3.21
2023-01-27T10:55:15.406Z,3.19
2023-01-27T10:57:50.981Z,3.20
2023-01-27T11:03:24.301Z,3.23
2023-01-27T11:05:53.572Z,3.23
2023-01-27T11:08:23.696Z,3.25
2023-01-27T11:11:12.962Z,3.25
2023-01-27T11:13:41.344Z,3.26
2023-01-27T11:16:19.477Z,3.26
2023-01-27T11:18:55.396Z,3.27
2023-01-27T11:21:26.030Z,3.24
2023-01-27T11:23:59.575Z,3.24
2023-01-27T11:26:34.512Z,3.24
2023-01-27T11:29:17.496Z,3.25
2023-01-27T11:31:55.258Z,3.27
2023-01-27T11:34:46.497Z,3.28
2023-01-27T11:37:19.756Z,3.27
2023-01-27T11:39:48.034Z,3.27
2023-01-27T11:42:16.552Z,3.27
2023-01-27T11:44:45.550Z,3.26
2023-01-27T11:47:22.531Z,3.25
2023-01-27T11:49:52.553Z,3.21
2023-01-27T11:52:21.634Z,3.18
2023-01-27T11:54:52.795Z,3.15
2023-01-27T11:57:24.650Z,3.12
2023-01-27T11:59:55.784Z,3.09
2023-01-27T12:02:33.833Z,3.06
2023-01-27T12:05:08.192Z,3.01
2023-01-27T12:07:39.049Z,2.98
2023-01-27T12:10:36.516Z,2.94
2023-01-27T12:13:17.172Z,2.91
2023-01-27T12:15:49.472Z,2.91
2023-01-27T12:18:17.935Z,2.93
2023-01-27T12:20:50.846Z,2.93
2023-01-27T12:23:27.595Z,2.92
2023-01-27T12:26:00.369Z,2.95
2023-01-27T12:28:28.340Z,2.98
2023-01-27T12:31:02.153Z,3.01
2023-01-27T12:33:32.144Z,3.03
2023-01-27T12:36:01.515Z,3.05
2023-01-27T12:38:33.428Z,3.08
2023-01-27T12:41:03.457Z,3.12
2023-01-27T12:43:31.618Z,3.15
2023-01-27T12:46:05.981Z,3.18
2023-01-27T12:48:36.567Z,3.21
2023-01-27T12:51:06.351Z,3.25
2023-01-27T12:53:34.351Z,3.26
2023-01-27T12:56:22.394Z,3.24
2023-01-27T12:58:56.307Z,3.19
2023-01-27T13:01:44.176Z,3.14
2023-01-27T13:04:15.174Z,3.14
2023-01-27T13:06:49.144Z,3.13
2023-01-27T13:09:37.326Z,3.09
2023-01-27T13:12:25.461Z,3.06
2023-01-27T13:14:57.368Z,3.00
2023-01-27T13:17:38.521Z,2.95
2023-01-27T13:20:26.958Z,2.90
2023-01-27T13:22:58.227Z,2.85
2023-01-27T13:25:36.617Z,2.83
2023-01-27T13:28:07.054Z,2.78
2023-01-27T13:30:40.494Z,2.72
2023-01-27T13:33:31.559Z,2.71
2023-01-27T13:36:19.694Z,2.70
2023-01-27T13:38:51.555Z,2.66
2023-01-27T13:41:39.698Z,2.62
2023-01-27T13:44:21.319Z,2.60
2023-01-27T13:46:49.777Z,2.58
2023-01-27T13:49:28.859Z,2.57
2023-01-27T13:51:56.766Z,2.56
2023-01-27T13:54:25.778Z,2.55
2023-01-27T13:57:12.695Z,2.52
2023-01-27T13:59:49.454Z,2.49
2023-01-27T14:02:26.741Z,2.50
2023-01-27T14:04:57.919Z,2.48
2023-01-27T14:07:32.172Z,2.45
2023-01-27T14:10:13.792Z,2.44
2023-01-27T14:12:50.492Z,2.43
2023-01-27T14:15:24.410Z,2.41
2023-01-27T14:17:57.747Z,2.40
2023-01-27T14:20:28.610Z,2.37
2023-01-27T14:23:09.999Z,2.38
2023-01-27T14:25:38.029Z,2.40
2023-01-27T14:28:26.123Z,2.40
2023-01-27T14:31:03.120Z,2.40
2023-01-27T14:33:45.813Z,2.40
2023-01-27T14:36:21.086Z,2.39
2023-01-27T14:38:54.998Z,2.39
2023-01-27T14:41:23.216Z,2.37
2023-01-27T14:43:51.989Z,2.35
2023-01-27T14:46:39.426Z,2.33
2023-01-27T14:49:27.168Z,2.31
2023-01-27T14:51:57.901Z,2.32
2023-01-27T14:54:40.723Z,2.31
2023-01-27T14:57:11.762Z,2.29
2023-01-27T14:59:55.101Z,2.30
2023-01-27T15:02:44.163Z,2.30
2023-01-27T15:05:26.063Z,2.29
2023-01-27T15:08:02.716Z,2.28
2023-01-27T15:10:31.915Z,2.26
2023-01-27T15:13:18.936Z,2.23
2023-01-27T15:15:58.110Z,2.18
2023-01-27T15:18:46.315Z,2.16
2023-01-27T15:21:32.724Z,2.16
2023-01-27T15:24:10.093Z,2.16
2023-01-27T15:26:39.106Z,2.15
2023-01-27T15:29:09.729Z,2.14
2023-01-27T15:31:37.778Z,2.14
2023-01-27T15:34:17.035Z,2.14
2023-01-27T15:37:00.081Z,2.13
2023-01-27T15:39:40.400Z,2.12
2023-01-27T15:42:11.525Z,2.11
2023-01-27T15:44:41.891Z,2.10
2023-01-27T15:47:14.970Z,2.09
2023-01-27T15:50:05.084Z,2.08
2023-01-27T15:52:40.813Z,2.08
2023-01-27T15:55:22.574Z,2.07
2023-01-27T15:57:53.851Z,2.06
2023-01-27T16:00:29.319Z,2.06
2023-01-27T16:03:02.503Z,2.08
2023-01-27T16:05:52.161Z,2.09
2023-01-27T16:08:20.751Z,2.07
2023-01-27T16:10:48.716Z,2.03
2023-01-27T16:13:27.216Z,2.03
2023-01-27T16:16:14.125Z,2.06
2023-01-27T16:19:02.514Z,2.12
2023-01-27T16:21:38.238Z,2.20
2023-01-27T16:24:12.423Z,2.28
2023-01-27T16:26:43.517Z,2.36
2023-01-27T16:29:26.409Z,2.37
2023-01-27T16:32:01.209Z,2.32
2023-01-27T16:34:42.022Z,2.34
2023-01-27T16:37:16.133Z,2.34
2023-01-27T16:39:54.450Z,2.37
2023-01-27T16:42:28.255Z,2.45
2023-01-27T16:44:58.901Z,2.55
2023-01-27T16:47:29.861Z,2.60
2023-01-27T16:50:00.133Z,2.63
2023-01-27T16:52:41.185Z,2.64
2023-01-27T16:55:20.293Z,2.65
2023-01-27T16:57:48.331Z,2.62
2023-01-27T17:00:21.218Z,2.59
2023-01-27T17:02:51.172Z,2.56
2023-01-27T17:05:19.766Z,2.56
2023-01-27T17:08:06.230Z,2.55
2023-01-27T17:10:35.424Z,2.50
2023-01-27T17:13:03.804Z,2.48
2023-01-27T17:15:36.992Z,2.48
2023-01-27T17:18:09.088Z,2.46
2023-01-27T17:20:39.067Z,2.44
2023-01-27T17:23:07.422Z,2.41
2023-01-27T17:25:37.715Z,2.36
2023-01-27T17:28:10.358Z,2.31
2023-01-27T17:30:40.123Z,2.27
2023-01-27T17:33:14.470Z,2.22
2023-01-27T17:35:43.269Z,2.20
2023-01-27T17:38:13.494Z,2.17
2023-01-27T17:40:45.359Z,2.17
2023-01-27T17:43:22.334Z,2.16
2023-01-27T17:46:12.172Z,2.13
2023-01-27T17:48:52.365Z,2.07
2023-01-27T17:51:22.285Z,2.05
2023-01-27T17:53:51.481Z,2.04
2023-01-27T17:56:22.422Z,2.04
2023-01-27T17:58:53.361Z,2.04
2023-01-27T18:01:22.480Z,2.04
2023-01-27T18:03:53.880Z,2.02
2023-01-27T18:06:23.311Z,2.00
2023-01-27T18:08:53.020Z,1.99
2023-01-27T18:11:22.838Z,1.98
2023-01-27T18:13:54.793Z,1.97
2023-01-27T18:16:24.495Z,1.92
2023-01-27T18:18:52.885Z,1.88
2023-01-27T18:21:25.360Z,1.87
2023-01-27T18:23:55.869Z,1.87
2023-01-27T18:26:26.755Z,1.87
2023-01-27T18:29:03.063Z,1.87
2023-01-27T18:31:34.439Z,1.86
2023-01-27T18:34:20.441Z,1.84
2023-01-27T18:36:52.902Z,1.83
2023-01-27T18:39:26.919Z,1.82
2023-01-27T18:41:55.108Z,1.79
2023-01-27T18:44:27.341Z,1.77
2023-01-27T18:47:05.575Z,1.76
2023-01-27T18:49:33.521Z,1.76
2023-01-27T18:52:02.325Z,1.75
2023-01-27T18:54:30.814Z,1.75
2023-01-27T18:56:58.672Z,1.74
2023-01-27T18:59:26.585Z,1.73
2023-01-27T19:01:54.638Z,1.72
2023-01-27T19:04:23.819Z,1.70
2023-01-27T19:06:51.986Z,1.70
2023-01-27T19:09:20.264Z,1.70
2023-01-27T19:11:48.951Z,1.69
2023-01-27T19:14:17.022Z,1.68
2023-01-27T19:16:44.988Z,1.67
2023-01-27T19:19:12.962Z,1.67
2023-01-27T19:21:40.943Z,1.68
2023-01-27T19:24:10.496Z,1.68
2023-01-27T19:26:38.505Z,1.68
2023-01-27T19:29:06.371Z,1.67
2023-01-27T19:31:34.399Z,1.67
2023-01-27T19:34:02.415Z,1.66
2023-01-27T19:36:50.584Z,1.64
2023-01-27T19:39:20.263Z,1.63
2023-01-27T19:41:48.208Z,1.63
2023-01-27T19:44:16.508Z,1.63
2023-01-27T19:46:44.437Z,1.65
2023-01-27T19:49:16.373Z,1.66
2023-01-27T19:51:44.313Z,1.67
2023-01-27T19:54:12.496Z,1.69
2023-01-27T19:56:40.565Z,1.71
2023-01-27T19:59:09.504Z,1.74
2023-01-27T20:01:37.522Z,1.77
2023-01-27T20:04:05.420Z,1.82
2023-01-27T20:06:34.596Z,1.86
2023-01-27T20:09:03.587Z,1.91
2023-01-27T20:11:42.110Z,1.95
2023-01-27T20:14:14.375Z,1.99
2023-01-27T20:16:43.005Z,2.01
2023-01-27T20:19:15.056Z,2.05
2023-01-27T20:21:44.367Z,2.11
2023-01-27T20:24:16.741Z,2.16
2023-01-27T20:26:45.211Z,2.21
2023-01-27T20:29:14.358Z,2.25
2023-01-27T20:31:42.417Z,2.29
2023-01-27T20:34:10.508Z,2.28
2023-01-27T20:36:38.580Z,2.26
2023-01-27T20:39:06.455Z,2.25
2023-01-27T20:41:34.421Z,2.24
2023-01-27T20:44:02.408Z,2.23
2023-01-27T20:46:30.457Z,2.22
2023-01-27T20:48:59.141Z,2.16
2023-01-27T20:51:27.119Z,2.11
2023-01-27T20:53:55.186Z,2.09
2023-01-27T20:56:24.172Z,2.08
2023-01-27T20:58:54.328Z,2.05
2023-01-27T21:01:23.054Z,2.00
2023-01-27T21:03:51.155Z,1.92
2023-01-27T21:06:22.401Z,1.88
2023-01-27T21:08:50.783Z,1.86
2023-01-27T21:11:20.703Z,1.85
2023-01-27T21:13:49.072Z,1.85
2023-01-27T21:16:17.488Z,1.85
2023-01-27T21:18:45.736Z,1.85
2023-01-27T21:21:27.667Z,1.85
2023-01-27T21:23:56.725Z,1.85
2023-01-27T21:26:24.816Z,1.83
2023-01-27T21:28:53.283Z,1.83
2023-01-27T21:31:22.037Z,1.82
2023-01-27T21:33:50.960Z,1.80
2023-01-27T21:36:19.482Z,1.79
2023-01-27T21:38:50.431Z,1.75
2023-01-27T21:41:37.911Z,1.70
2023-01-27T21:44:25.445Z,1.67
2023-01-27T21:46:53.334Z,1.67
2023-01-27T21:49:21.268Z,1.66
2023-01-27T21:51:50.229Z,1.65
2023-01-27T21:54:18.338Z,1.66
2023-01-27T21:56:46.306Z,1.66
2023-01-27T21:59:14.266Z,1.66
2023-01-27T22:01:42.243Z,1.68
2023-01-27T22:04:10.322Z,1.69
2023-01-27T22:06:38.561Z,1.71
2023-01-27T22:09:06.559Z,1.70
2023-01-27T22:11:34.634Z,1.71
2023-01-27T22:14:02.602Z,1.70
2023-01-27T22:16:30.627Z,1.70
2023-01-27T22:18:58.642Z,1.70
2023-01-27T22:21:26.716Z,1.69
2023-01-27T22:23:54.711Z,1.68
2023-01-27T22:26:22.759Z,1.67
2023-01-27T22:28:50.721Z,1.66
2023-01-27T22:31:18.577Z,1.65
2023-01-27T22:33:46.459Z,1.64
2023-01-27T22:36:14.781Z,1.63
2023-01-27T22:38:42.907Z,1.64
2023-01-27T22:41:10.892Z,1.63
2023-01-27T22:43:38.846Z,1.64
2023-01-27T22:46:06.735Z,1.64
2023-01-27T22:48:34.889Z,1.64
2023-01-27T22:51:03.785Z,1.64
2023-01-27T22:53:32.144Z,1.63
2023-01-27T22:56:00.853Z,1.63
2023-01-27T22:58:29.414Z,1.61
2023-01-27T23:00:57.342Z,1.61
2023-01-27T23:03:25.575Z,1.59
2023-01-27T23:05:53.542Z,1.57
2023-01-27T23:08:21.409Z,1.56
2023-01-27T23:10:50.204Z,1.55
2023-01-27T23:13:18.069Z,1.54
2023-01-27T23:15:46.033Z,1.53
2023-01-27T23:18:13.846Z,1.52
2023-01-27T23:20:42.906Z,1.51
2023-01-27T23:23:11.691Z,1.51
2023-01-27T23:25:45.285Z,1.50
2023-01-27T23:28:14.721Z,1.50
2023-01-27T23:30:46.541Z,1.49
2023-01-27T23:33:15.647Z,1.49
2023-01-27T23:35:44.027Z,1.49
2023-01-27T23:38:26.360Z,1.50
2023-01-27T23:41:03.023Z,1.52
2023-01-27T23:43:33.582Z,1.56
2023-01-27T23:46:01.447Z,1.58
2023-01-27T23:48:29.799Z,1.61
2023-01-27T23:50:57.670Z,1.65
2023-01-27T23:53:25.697Z,1.68
2023-01-27T23:55:57.593Z,1.73
2023-01-27T23:58:26.271Z,1.77
